createdAt,value
2023-05-06T00:00:44.218Z,93492.78
2023-05-06T00:03:12.025Z,93494.38
2023-05-06T00:05:39.434Z,93490.78
2023-05-06T00:08:06.732Z,93492.87
2023-05-06T00:10:34.438Z,93490.56
2023-05-06T00:13:01.765Z,93489.78
2023-05-06T00:15:31.505Z,93480.59
2023-05-06T00:18:01.270Z,93486.63
2023-05-06T00:20:29.069Z,93484.25
2023-05-06T00:22:56.350Z,93479.41
2023-05-06T00:25:24.025Z,93479.78
2023-05-06T00:27:51.398Z,93482.97
2023-05-06T00:30:19.737Z,93482.56
2023-05-06T00:32:47.431Z,93485.47
2023-05-06T00:35:15.159Z,93487.06
2023-05-06T00:37:45.980Z,93481.28
2023-05-06T00:40:14.533Z,93479.84
2023-05-06T00:42:41.948Z,93481.94
2023-05-06T00:45:10.057Z,93486.63
2023-05-06T00:47:37.925Z,93489.00
2023-05-06T00:50:05.775Z,93477.63
2023-05-06T00:52:34.450Z,93482.47
2023-05-06T00:55:02.280Z,93482.47
2023-05-06T00:57:30.016Z,93484.03
2023-05-06T00:59:57.409Z,93481.25
2023-05-06T01:02:33.271Z,93480.47
2023-05-06T01:05:08.674Z,93468.56
2023-05-06T01:07:50.932Z,93468.31
2023-05-06T01:10:36.080Z,93466.66
2023-05-06T01:13:16.554Z,93476.06
2023-05-06T01:15:52.869Z,93469.50
2023-05-06T01:18:22.917Z,93467.47
2023-05-06T01:20:52.697Z,93475.94
2023-05-06T01:23:21.327Z,93472.28
2023-05-06T01:25:48.800Z,93474.56
2023-05-06T01:28:17.044Z,93473.75
2023-05-06T01:31:00.029Z,93481.25
2023-05-06T01:34:02.966Z,93470.31
2023-05-06T01:36:54.091Z,93475.16
2023-05-06T01:39:25.965Z,93478.16
2023-05-06T01:41:57.541Z,93469.94
2023-05-06T01:44:28.234Z,93475.72
2023-05-06T01:46:56.753Z,93481.25
2023-05-06T01:49:26.624Z,93479.56
2023-05-06T01:51:54.273Z,93469.56
2023-05-06T01:54:22.171Z,93472.53
2023-05-06T01:56:49.528Z,93472.31
2023-05-06T01:59:16.877Z,93466.75
2023-05-06T02:01:44.595Z,93477.37
2023-05-06T02:04:12.293Z,93473.16
2023-05-06T02:06:39.989Z,93469.72
2023-05-06T02:09:07.314Z,93472.53
2023-05-06T02:11:38.279Z,93467.34
2023-05-06T02:14:06.377Z,93464.53
2023-05-06T02:16:33.962Z,93473.00
2023-05-06T02:19:01.610Z,93470.94
2023-05-06T02:21:29.044Z,93468.13
2023-05-06T02:23:56.646Z,93469.25
2023-05-06T02:26:23.898Z,93469.16
2023-05-06T02:28:51.308Z,93472.81
2023-05-06T02:31:18.971Z,93466.56
2023-05-06T02:33:46.333Z,93468.44
2023-05-06T02:36:13.693Z,93468.81
2023-05-06T02:38:41.505Z,93472.38
2023-05-06T02:41:08.842Z,93468.22
2023-05-06T02:43:36.396Z,93466.47
2023-05-06T02:46:05.301Z,93465.78
2023-05-06T02:48:32.707Z,93472.81
2023-05-06T02:51:00.270Z,93469.53
2023-05-06T02:53:28.102Z,93475.19
2023-05-06T02:55:55.437Z,93479.47
2023-05-06T02:58:22.704Z,93482.09
2023-05-06T03:00:50.945Z,93484.84
2023-05-06T03:03:18.330Z,93482.75
2023-05-06T03:05:45.911Z,93480.94
2023-05-06T03:08:13.698Z,93487.81
2023-05-06T03:10:41.446Z,93490.53
2023-05-06T03:13:09.081Z,93482.91
2023-05-06T03:15:37.323Z,93488.25
2023-05-06T03:18:04.751Z,93485.28
2023-05-06T03:20:32.421Z,93483.28
2023-05-06T03:23:00.468Z,93486.91
2023-05-06T03:25:27.872Z,93491.78
2023-05-06T03:27:55.469Z,93497.28
2023-05-06T03:30:23.406Z,93490.53
2023-05-06T03:32:51.214Z,93498.03
2023-05-06T03:35:19.090Z,93491.50
2023-05-06T03:37:48.772Z,93495.44
2023-05-06T03:40:16.597Z,93501.03
2023-05-06T03:42:45.165Z,93499.19
2023-05-06T03:45:13.490Z,93494.78
2023-05-06T03:47:41.479Z,93496.66
2023-05-06T03:50:10.004Z,93497.16
2023-05-06T03:52:38.446Z,93507.94
2023-05-06T03:55:07.347Z,93503.19
2023-05-06T03:57:35.839Z,93506.56
2023-05-06T04:00:04.479Z,93505.06
2023-05-06T04:02:33.083Z,93503.22
2023-05-06T04:05:00.687Z,93512.41
2023-05-06T04:07:28.885Z,93501.78
2023-05-06T04:09:56.219Z,93507.37
2023-05-06T04:12:24.768Z,93515.13
2023-05-06T04:14:52.798Z,93508.13
2023-05-06T04:17:20.722Z,93525.34
2023-05-06T04:19:49.712Z,93525.75
2023-05-06T04:22:17.866Z,93519.53
2023-05-06T04:24:45.950Z,93529.31
2023-05-06T04:27:13.803Z,93523.72
2023-05-06T04:29:41.710Z,93525.09
2023-05-06T04:32:10.484Z,93531.66
2023-05-06T04:34:38.676Z,93525.53
2023-05-06T04:37:07.212Z,93526.88
2023-05-06T04:39:37.278Z,93526.22
2023-05-06T04:42:06.641Z,93522.16
2023-05-06T04:44:34.523Z,93522.47
2023-05-06T04:47:03.043Z,93522.72
2023-05-06T04:49:30.907Z,93531.25
2023-05-06T04:54:26.601Z,93531.66
2023-05-06T04:56:54.485Z,93535.47
2023-05-06T04:59:23.419Z,93533.78
2023-05-06T05:01:51.647Z,93535.16
2023-05-06T05:04:19.820Z,93541.53
2023-05-06T05:06:48.845Z,93548.47
2023-05-06T05:09:17.274Z,93540.19
2023-05-06T05:11:45.339Z,93555.53
2023-05-06T05:14:12.801Z,93541.81
2023-05-06T05:16:40.706Z,93552.78
2023-05-06T05:19:09.686Z,93552.37
2023-05-06T05:21:37.172Z,93553.13
2023-05-06T05:24:05.965Z,93555.72
2023-05-06T05:26:35.462Z,93546.75
2023-05-06T05:29:03.242Z,93551.31
2023-05-06T05:31:32.687Z,93549.09
2023-05-06T05:34:00.571Z,93562.97
2023-05-06T05:36:28.237Z,93557.31
2023-05-06T05:38:55.930Z,93554.13
2023-05-06T05:41:26.097Z,93552.28
2023-05-06T05:43:54.113Z,93552.59
2023-05-06T05:46:22.405Z,93552.13
2023-05-06T05:48:50.763Z,93551.75
2023-05-06T05:51:18.296Z,93551.91
2023-05-06T05:53:46.478Z,93553.75
2023-05-06T05:56:14.471Z,93556.47
2023-05-06T05:58:42.752Z,93547.91
2023-05-06T06:01:11.100Z,93559.19
2023-05-06T06:03:39.894Z,93561.13
2023-05-06T06:06:08.034Z,93557.53
2023-05-06T06:08:36.739Z,93558.50
2023-05-06T06:11:06.027Z,93560.16
2023-05-06T06:13:35.981Z,93562.47
2023-05-06T06:16:04.317Z,93565.78
2023-05-06T06:18:34.018Z,93562.81
2023-05-06T06:21:01.699Z,93559.78
2023-05-06T06:23:31.221Z,93557.59
2023-05-06T06:25:59.056Z,93562.56
2023-05-06T06:28:26.392Z,93556.97
2023-05-06T06:30:54.406Z,93548.44
2023-05-06T06:33:21.816Z,93539.34
2023-05-06T06:35:49.244Z,93536.69
2023-05-06T06:38:16.976Z,93541.16
2023-05-06T06:40:44.412Z,93546.63
2023-05-06T06:43:11.918Z,93545.37
2023-05-06T06:45:42.421Z,93537.00
2023-05-06T06:48:10.240Z,93533.81
2023-05-06T06:50:37.878Z,93548.31
2023-05-06T06:53:06.804Z,93533.84
2023-05-06T06:55:34.157Z,93532.78
2023-05-06T06:58:01.487Z,93534.16
2023-05-06T07:00:29.619Z,93523.53
2023-05-06T07:02:57.003Z,93530.97
2023-05-06T07:05:24.650Z,93536.38
2023-05-06T07:07:53.233Z,93526.69
2023-05-06T07:10:20.877Z,93539.34
2023-05-06T07:12:48.239Z,93528.53
2023-05-06T07:15:16.129Z,93524.44
2023-05-06T07:17:44.319Z,93529.03
2023-05-06T07:20:12.539Z,93530.91
2023-05-06T07:22:41.555Z,93530.63
2023-05-06T07:25:09.466Z,93538.53
2023-05-06T07:27:37.237Z,93536.94
2023-05-06T07:30:05.528Z,93541.94
2023-05-06T07:32:33.105Z,93537.22
2023-05-06T07:35:00.624Z,93541.62
2023-05-06T07:37:28.793Z,93542.28
2023-05-06T07:39:57.791Z,93548.22
2023-05-06T07:42:25.212Z,93540.28
2023-05-06T07:44:54.320Z,93541.25
2023-05-06T07:47:30.574Z,93540.84
2023-05-06T07:49:59.044Z,93536.78
2023-05-06T07:52:27.843Z,93538.34
2023-05-06T07:54:55.170Z,93540.75
2023-05-06T07:57:23.276Z,93528.59
2023-05-06T07:59:52.340Z,93537.31
2023-05-06T08:02:19.824Z,93540.72
2023-05-06T08:04:49.483Z,93538.78
2023-05-06T08:07:18.319Z,93535.75
2023-05-06T08:09:46.597Z,93528.47
2023-05-06T08:12:16.185Z,93532.97
2023-05-06T08:14:43.777Z,93528.75
2023-05-06T08:17:11.325Z,93527.66
2023-05-06T08:19:39.114Z,93526.91
2023-05-06T08:22:06.564Z,93526.66
2023-05-06T08:24:33.872Z,93529.22
2023-05-06T08:27:02.438Z,93534.22
2023-05-06T08:29:29.992Z,93529.16
2023-05-06T08:31:57.559Z,93526.59
2023-05-06T08:34:25.372Z,93530.56
2023-05-06T08:36:53.008Z,93530.34
2023-05-06T08:39:20.402Z,93534.25
2023-05-06T08:41:51.431Z,93534.25
2023-05-06T08:44:23.517Z,93535.84
2023-05-06T08:46:51.732Z,93538.00
2023-05-06T08:49:20.306Z,93539.56
2023-05-06T08:51:52.008Z,93538.97
2023-05-06T08:54:20.169Z,93549.31
2023-05-06T08:56:53.546Z,93544.25
2023-05-06T08:59:31.128Z,93542.38
2023-05-06T09:02:04.021Z,93538.94
2023-05-06T09:04:31.955Z,93542.59
2023-05-06T09:06:59.558Z,93537.84
2023-05-06T09:09:26.911Z,93544.66
2023-05-06T09:11:57.480Z,93543.66
2023-05-06T09:14:25.127Z,93535.72
2023-05-06T09:16:53.387Z,93536.50
2023-05-06T09:19:23.254Z,93534.34
2023-05-06T09:21:51.668Z,93536.72
2023-05-06T09:24:20.650Z,93535.88
2023-05-06T09:26:48.592Z,93532.91
2023-05-06T09:29:16.302Z,93531.53
2023-05-06T09:31:48.228Z,93525.25
2023-05-06T09:34:17.602Z,93527.31
2023-05-06T09:36:44.996Z,93517.88
2023-05-06T09:39:12.579Z,93516.72
2023-05-06T09:41:40.340Z,93529.37
2023-05-06T09:44:07.767Z,93521.75
2023-05-06T09:46:35.289Z,93516.59
2023-05-06T09:49:02.992Z,93516.47
2023-05-06T09:51:31.311Z,93519.31
2023-05-06T09:54:00.983Z,93510.34
2023-05-06T09:56:30.977Z,93514.00
2023-05-06T09:59:01.576Z,93510.97
2023-05-06T10:01:36.664Z,93509.72
2023-05-06T10:04:10.133Z,93511.06
2023-05-06T10:06:41.382Z,93496.88
2023-05-06T10:09:10.697Z,93500.25
2023-05-06T10:11:38.933Z,93501.66
2023-05-06T10:14:07.254Z,93502.47
2023-05-06T10:16:36.786Z,93491.19
2023-05-06T10:19:08.237Z,93493.66
2023-05-06T10:21:41.473Z,93488.62
2023-05-06T10:24:13.620Z,93491.75
2023-05-06T10:26:42.879Z,93494.38
2023-05-06T10:29:11.521Z,93496.12
2023-05-06T10:31:45.212Z,93495.81
2023-05-06T10:34:13.821Z,93493.38
2023-05-06T10:36:43.504Z,93498.44
2023-05-06T10:39:14.405Z,93504.22
2023-05-06T10:41:43.797Z,93491.72
2023-05-06T10:44:13.009Z,93488.09
2023-05-06T10:47:00.902Z,93487.28
2023-05-06T10:49:29.356Z,93488.28
2023-05-06T10:52:17.142Z,93499.56
2023-05-06T10:54:50.560Z,93498.56
2023-05-06T10:57:18.563Z,93493.88
2023-05-06T10:59:47.435Z,93491.75
2023-05-06T11:02:17.108Z,93497.56
2023-05-06T11:04:59.825Z,93499.63
2023-05-06T11:07:27.780Z,93497.00
2023-05-06T11:10:07.027Z,93491.75
2023-05-06T11:12:52.857Z,93489.22
2023-05-06T11:15:36.376Z,93491.37
2023-05-06T11:18:29.495Z,93490.28
2023-05-06T11:21:03.152Z,93488.09
2023-05-06T11:24:03.589Z,93497.19
2023-05-06T11:26:33.368Z,93488.97
2023-05-06T11:29:04.286Z,93488.28
2023-05-06T11:31:40.141Z,93486.88
2023-05-06T11:34:09.825Z,93485.34
2023-05-06T11:36:46.670Z,93490.22
2023-05-06T11:39:14.754Z,93481.44
2023-05-06T11:41:42.226Z,93482.38
2023-05-06T11:44:11.552Z,93482.91
2023-05-06T11:46:39.482Z,93490.03
2023-05-06T11:49:06.951Z,93490.94
2023-05-06T11:51:34.351Z,93495.16
2023-05-06T11:54:10.008Z,93484.59
2023-05-06T11:56:55.336Z,93478.22
2023-05-06T11:59:31.504Z,93486.13
2023-05-06T12:02:00.846Z,93489.03
2023-05-06T12:04:28.956Z,93480.59
2023-05-06T12:06:57.186Z,93487.19
2023-05-06T12:09:25.276Z,93485.41
2023-05-06T12:11:53.450Z,93483.19
2023-05-06T12:14:21.213Z,93482.19
2023-05-06T12:16:49.682Z,93477.34
2023-05-06T12:19:18.450Z,93468.72
2023-05-06T12:21:46.505Z,93472.91
2023-05-06T12:24:14.013Z,93473.00
2023-05-06T12:26:46.920Z,93469.81
2023-05-06T12:29:19.561Z,93465.25
2023-05-06T12:31:47.972Z,93462.56
2023-05-06T12:34:17.416Z,93458.19
2023-05-06T12:36:47.406Z,93458.22
2023-05-06T12:39:17.964Z,93456.47
2023-05-06T12:41:46.629Z,93459.13
2023-05-06T12:44:37.539Z,93460.56
2023-05-06T12:47:08.344Z,93460.13
2023-05-06T12:49:53.924Z,93471.16
2023-05-06T12:52:27.640Z,93470.16
2023-05-06T12:54:54.969Z,93467.69
2023-05-06T12:57:23.177Z,93475.53
2023-05-06T12:59:50.953Z,93470.53
2023-05-06T13:02:19.114Z,93472.47
2023-05-06T13:04:47.225Z,93477.34
2023-05-06T13:07:14.570Z,93471.97
2023-05-06T13:09:41.901Z,93469.91
2023-05-06T13:12:09.735Z,93466.91
2023-05-06T13:14:39.879Z,93461.94
2023-05-06T13:17:08.441Z,93465.88
2023-05-06T13:19:36.412Z,93466.72
2023-05-06T13:22:04.088Z,93460.56
2023-05-06T13:24:32.395Z,93459.72
2023-05-06T13:27:01.367Z,93462.31
2023-05-06T13:29:29.833Z,93470.59
2023-05-06T13:31:57.340Z,93466.53
2023-05-06T13:34:25.030Z,93459.66
2023-05-06T13:36:54.935Z,93465.34
2023-05-06T13:39:22.842Z,93462.59
2023-05-06T13:41:51.356Z,93464.69
2023-05-06T13:44:19.927Z,93463.06
2023-05-06T13:46:48.324Z,93455.13
2023-05-06T13:49:16.253Z,93456.81
2023-05-06T13:51:43.609Z,93449.00
2023-05-06T13:54:10.998Z,93462.28
2023-05-06T13:56:38.726Z,93452.38
2023-05-06T13:59:08.304Z,93456.63
2023-05-06T14:01:36.241Z,93450.56
2023-05-06T14:04:04.061Z,93457.44
2023-05-06T14:06:31.693Z,93453.19
2023-05-06T14:08:59.304Z,93451.34
2023-05-06T14:11:26.957Z,93451.84
2023-05-06T14:13:56.552Z,93455.78
2023-05-06T14:16:23.971Z,93448.34
2023-05-06T14:18:51.873Z,93443.97
2023-05-06T14:21:19.157Z,93447.53
2023-05-06T14:23:46.440Z,93449.44
2023-05-06T14:26:14.504Z,93450.41
2023-05-06T14:28:41.881Z,93448.69
2023-05-06T14:31:09.343Z,93446.69
2023-05-06T14:33:38.754Z,93452.09
2023-05-06T14:36:06.608Z,93448.13
2023-05-06T14:38:34.095Z,93450.78
2023-05-06T14:41:01.851Z,93448.16
2023-05-06T14:43:29.319Z,93441.72
2023-05-06T14:45:56.603Z,93432.81
2023-05-06T14:48:25.559Z,93428.28
2023-05-06T14:50:53.271Z,93425.91
2023-05-06T14:53:20.661Z,93425.88
2023-05-06T14:55:49.087Z,93426.78
2023-05-06T14:58:16.551Z,93436.66
2023-05-06T15:00:44.912Z,93434.69
2023-05-06T15:03:12.631Z,93439.81
2023-05-06T15:05:40.033Z,93434.59
2023-05-06T15:08:07.525Z,93440.84
2023-05-06T15:10:35.259Z,93437.81
2023-05-06T15:13:03.056Z,93435.78
2023-05-06T15:15:30.510Z,93438.56
2023-05-06T15:17:58.297Z,93441.19
2023-05-06T15:20:26.255Z,93437.13
2023-05-06T15:22:53.619Z,93438.87
2023-05-06T15:25:34.442Z,93440.94
2023-05-06T15:28:03.861Z,93444.84
2023-05-06T15:30:31.685Z,93434.94
2023-05-06T15:32:59.116Z,93443.12
2023-05-06T15:35:27.395Z,93441.31
2023-05-06T15:37:58.982Z,93438.37
2023-05-06T15:40:27.107Z,93444.78
2023-05-06T15:42:54.931Z,93444.00
2023-05-06T15:45:22.804Z,93443.25
2023-05-06T15:47:50.300Z,93438.81
2023-05-06T15:50:32.479Z,93435.69
2023-05-06T15:53:01.854Z,93433.34
2023-05-06T15:55:34.517Z,93441.38
2023-05-06T15:58:08.660Z,93437.75
2023-05-06T16:00:36.380Z,93430.87
2023-05-06T16:03:04.109Z,93432.50
2023-05-06T16:05:32.011Z,93427.84
2023-05-06T16:07:59.381Z,93433.00
2023-05-06T16:10:27.141Z,93431.69
2023-05-06T16:12:54.693Z,93429.22
2023-05-06T16:15:22.090Z,93434.81
2023-05-06T16:17:49.770Z,93433.44
2023-05-06T16:20:17.030Z,93441.00
2023-05-06T16:22:50.519Z,93437.81
2023-05-06T16:25:18.217Z,93435.00
2023-05-06T16:27:45.580Z,93439.16
2023-05-06T16:30:13.354Z,93433.59
2023-05-06T16:32:41.183Z,93446.31
2023-05-06T16:35:08.999Z,93447.00
2023-05-06T16:37:36.836Z,93447.91
2023-05-06T16:40:05.038Z,93453.13
2023-05-06T16:42:32.531Z,93449.66
2023-05-06T16:44:59.903Z,93448.63
2023-05-06T16:47:27.704Z,93450.00
2023-05-06T16:49:55.273Z,93453.22
2023-05-06T16:52:22.640Z,93453.03
2023-05-06T16:54:53.228Z,93453.28
2023-05-06T16:57:20.667Z,93454.88
2023-05-06T16:59:47.967Z,93462.44
2023-05-06T17:02:15.622Z,93461.63
2023-05-06T17:04:43.220Z,93462.16
2023-05-06T17:07:11.497Z,93469.25
2023-05-06T17:09:39.716Z,93459.13
2023-05-06T17:12:08.014Z,93470.88
2023-05-06T17:14:35.838Z,93468.47
2023-05-06T17:17:05.498Z,93477.50
2023-05-06T17:19:33.705Z,93482.53
2023-05-06T17:22:00.963Z,93485.31
2023-05-06T17:24:28.700Z,93485.66
2023-05-06T17:26:56.032Z,93484.28
2023-05-06T17:29:23.428Z,93486.69
2023-05-06T17:31:51.285Z,93480.84
2023-05-06T17:34:18.641Z,93476.97
2023-05-06T17:36:46.002Z,93483.31
2023-05-06T17:39:13.704Z,93485.19
2023-05-06T17:41:41.400Z,93492.59
2023-05-06T17:44:08.885Z,93499.19
2023-05-06T17:46:36.942Z,93493.34
2023-05-06T17:49:04.350Z,93501.56
2023-05-06T17:51:31.701Z,93502.06
2023-05-06T17:53:59.951Z,93503.12
2023-05-06T17:56:27.424Z,93503.91
2023-05-06T17:58:54.898Z,93512.06
2023-05-06T18:01:22.620Z,93511.78
2023-05-06T18:03:50.488Z,93517.03
2023-05-06T18:06:18.809Z,93519.09
2023-05-06T18:08:46.341Z,93520.63
2023-05-06T18:11:14.169Z,93516.44
2023-05-06T18:13:41.641Z,93526.09
2023-05-06T18:16:09.839Z,93525.41
2023-05-06T18:18:38.180Z,93537.81
2023-05-06T18:21:05.762Z,93537.25
2023-05-06T18:23:33.284Z,93537.84
2023-05-06T18:26:05.046Z,93536.41
2023-05-06T18:28:37.615Z,93542.47
2023-05-06T18:31:06.784Z,93558.75
2023-05-06T18:33:35.676Z,93552.59
2023-05-06T18:36:03.436Z,93558.91
2023-05-06T18:38:31.217Z,93554.00
2023-05-06T18:40:58.814Z,93560.78
2023-05-06T18:43:26.334Z,93564.81
2023-05-06T18:45:54.247Z,93557.03
2023-05-06T18:48:21.709Z,93553.09
2023-05-06T18:50:50.765Z,93565.00
2023-05-06T18:53:18.546Z,93566.34
2023-05-06T18:55:45.921Z,93567.44
2023-05-06T18:58:13.336Z,93571.31
2023-05-06T19:00:41.170Z,93576.97
2023-05-06T19:03:08.658Z,93576.25
2023-05-06T19:05:38.157Z,93584.91
2023-05-06T19:08:07.549Z,93579.19
2023-05-06T19:10:34.954Z,93581.75
2023-05-06T19:13:03.182Z,93585.94
2023-05-06T19:15:31.444Z,93581.81
2023-05-06T19:17:59.035Z,93590.06
2023-05-06T19:20:26.566Z,93585.78
2023-05-06T19:22:54.591Z,93594.88
2023-05-06T19:25:22.132Z,93591.22
2023-05-06T19:27:49.485Z,93590.78
2023-05-06T19:30:17.288Z,93587.31
2023-05-06T19:32:44.760Z,93591.28
2023-05-06T19:35:12.708Z,93592.31
2023-05-06T19:37:40.731Z,93583.09
2023-05-06T19:40:09.284Z,93591.53
2023-05-06T19:42:36.643Z,93591.84
2023-05-06T19:45:09.418Z,93583.28
2023-05-06T19:47:37.434Z,93595.69
2023-05-06T19:50:06.238Z,93601.34
2023-05-06T19:52:34.835Z,93601.72
2023-05-06T19:55:03.402Z,93604.75
2023-05-06T19:57:33.919Z,93602.38
2023-05-06T20:00:06.055Z,93608.88
2023-05-06T20:02:34.482Z,93603.47
2023-05-06T20:05:02.045Z,93605.53
2023-05-06T20:07:30.918Z,93602.09
2023-05-06T20:09:58.732Z,93601.19
2023-05-06T20:12:30.429Z,93601.03
2023-05-06T20:14:57.876Z,93605.00
2023-05-06T20:17:26.117Z,93605.25
2023-05-06T20:19:53.569Z,93604.59
2023-05-06T20:22:21.042Z,93609.66
2023-05-06T20:24:49.106Z,93609.09
2023-05-06T20:27:16.476Z,93616.88
2023-05-06T20:29:43.874Z,93611.22
2023-05-06T20:32:12.197Z,93608.75
2023-05-06T20:34:39.475Z,93607.97
2023-05-06T20:37:06.907Z,93612.66
2023-05-06T20:39:34.849Z,93604.25
2023-05-06T20:42:02.209Z,93611.78
2023-05-06T20:44:29.674Z,93619.81
2023-05-06T20:46:57.476Z,93616.72
2023-05-06T20:49:24.850Z,93611.63
2023-05-06T20:51:52.308Z,93611.69
2023-05-06T20:54:20.059Z,93614.09
2023-05-06T20:56:47.414Z,93613.63
2023-05-06T20:59:14.772Z,93607.38
2023-05-06T21:01:42.552Z,93608.09
2023-05-06T21:04:09.938Z,93602.47
2023-05-06T21:06:37.284Z,93610.09
2023-05-06T21:09:04.942Z,93612.94
2023-05-06T21:11:32.327Z,93607.47
2023-05-06T21:13:59.686Z,93616.69
2023-05-06T21:16:27.275Z,93613.87
2023-05-06T21:18:54.653Z,93622.03
2023-05-06T21:21:24.465Z,93619.78
2023-05-06T21:23:52.176Z,93625.66
2023-05-06T21:26:21.692Z,93622.59
2023-05-06T21:28:52.231Z,93619.84
2023-05-06T21:31:20.890Z,93627.38
2023-05-06T21:33:51.422Z,93621.22
2023-05-06T21:36:18.707Z,93615.53
2023-05-06T21:38:48.863Z,93623.84
2023-05-06T21:41:16.819Z,93626.22
2023-05-06T21:43:44.228Z,93617.12
2023-05-06T21:46:11.973Z,93625.72
2023-05-06T21:48:39.304Z,93625.16
2023-05-06T21:51:06.632Z,93626.53
2023-05-06T21:53:34.323Z,93622.66
2023-05-06T21:56:01.625Z,93626.53
2023-05-06T21:58:28.922Z,93636.78
2023-05-06T22:00:56.633Z,93631.56
2023-05-06T22:03:24.514Z,93639.53
2023-05-06T22:05:52.268Z,93638.97
2023-05-06T22:08:19.561Z,93634.06
2023-05-06T22:10:47.192Z,93630.50
2023-05-06T22:13:14.584Z,93637.94
2023-05-06T22:15:42.150Z,93641.19
2023-05-06T22:18:10.425Z,93635.81
2023-05-06T22:20:37.852Z,93640.47
2023-05-06T22:23:05.541Z,93640.97
2023-05-06T22:25:33.395Z,93641.44
2023-05-06T22:28:02.284Z,93632.25
2023-05-06T22:30:29.606Z,93628.03
2023-05-06T22:32:57.352Z,93627.69
2023-05-06T22:35:24.588Z,93622.94
2023-05-06T22:37:52.245Z,93629.00
2023-05-06T22:40:19.874Z,93632.28
2023-05-06T22:42:48.406Z,93630.91
2023-05-06T22:45:15.950Z,93635.69
2023-05-06T22:47:43.654Z,93634.88
2023-05-06T22:50:11.676Z,93635.53
2023-05-06T22:52:39.146Z,93635.25
2023-05-06T22:55:10.000Z,93630.38
2023-05-06T22:57:37.586Z,93638.88
2023-05-06T23:00:06.900Z,93631.19
2023-05-06T23:02:34.844Z,93638.06
2023-05-06T23:05:02.245Z,93633.66
2023-05-06T23:07:29.558Z,93632.81
2023-05-06T23:09:59.759Z,93620.75
2023-05-06T23:12:28.253Z,93630.97
2023-05-06T23:14:55.490Z,93624.47
2023-05-06T23:17:23.114Z,93630.59
2023-05-06T23:19:50.836Z,93623.16
2023-05-06T23:22:18.200Z,93628.81
2023-05-06T23:24:46.091Z,93619.69
2023-05-06T23:27:13.354Z,93622.31
2023-05-06T23:29:40.722Z,93621.31
2023-05-06T23:32:11.204Z,93616.41
2023-05-06T23:34:38.524Z,93615.19
2023-05-06T23:37:05.941Z,93620.84
2023-05-06T23:39:33.559Z,93617.38
2023-05-06T23:42:02.007Z,93617.28
2023-05-06T23:44:29.361Z,93620.59
2023-05-06T23:46:56.995Z,93615.69
2023-05-06T23:49:24.279Z,93620.97
2023-05-06T23:51:51.615Z,93619.75
2023-05-06T23:54:19.359Z,93616.56
2023-05-06T23:56:46.663Z,93622.72
2023-05-06T23:59:14.053Z,93617.28
